Time,TemperatureF,DewpointF,PressureIn,WindDirection,WindDirectionDegrees,WindSpeedMPH,WindSpeedGustMPH,Humidity,HourlyPrecipIn,Conditions,Clouds,dailyrainin,SoftwareType,DateUTC
2013-02-09 00:01:00,18.4,15.7,30.05,East,92,0.0,0.0,89,0.00,,,0.05,WeatherLinkWUIModule,2013-02-09 05:01:00,
2013-02-09 00:11:00,18.3,15.6,30.05,East,92,0.0,0.0,89,0.00,,,0.00,WeatherLinkWUIModule,2013-02-09 05:11:00,
2013-02-09 00:21:00,18.3,15.6,30.06,East,92,0.0,0.0,89,0.00,,,0.00,WeatherLinkWUIModule,2013-02-09 05:21:00,
2013-02-09 00:31:00,18.3,15.6,30.06,East,92,0.0,0.0,89,0.00,,,0.00,WeatherLinkWUIModule,2013-02-09 05:31:00,
2013-02-09 00:41:00,18.3,15.6,30.06,East,92,0.0,0.0,89,0.00,,,0.00,WeatherLinkWUIModule,2013-02-09 05:41:00,
2013-02-09 00:51:00,18.3,15.6,30.07,East,92,0.0,0.0,89,0.00,,,0.00,WeatherLinkWUIModule,2013-02-09 05:51:00,
2013-02-09 01:01:00,18.3,15.6,30.08,East,92,0.0,0.0,89,0.00,,,0.00,WeatherLinkWUIModule,2013-02-09 06:01:00,
2013-02-09 01:11:00,18.1,15.4,30.08,East,92,0.0,0.0,89,0.00,,,0.00,WeatherLinkWUIModule,2013-02-09 06:11:00,
2013-02-09 01:21:00,18.1,15.4,30.08,East,92,0.0,0.0,89,0.00,,,0.00,WeatherLinkWUIModule,2013-02-09 06:21:00,
2013-02-09 01:31:00,18.1,15.4,30.08,East,92,0.0,0.0,89,0.00,,,0.00,WeatherLinkWUIModule,2013-02-09 06:31:00,
2013-02-09 01:41:00,18.0,15.3,30.08,East,92,0.0,0.0,89,0.00,,,0.00,WeatherLinkWUIModule,2013-02-09 06:41:00,
2013-02-09 01:51:00,18.0,15.3,30.09,East,92,0.0,0.0,89,0.00,,,0.00,WeatherLinkWUIModule,2013-02-09 06:51:00,
2013-02-09 02:01:00,18.0,15.3,30.10,East,92,0.0,0.0,89,0.00,,,0.00,WeatherLinkWUIModule,2013-02-09 07:01:00,
2013-02-09 02:11:00,18.0,15.3,30.10,East,92,0.0,0.0,89,0.00,,,0.00,WeatherLinkWUIModule,2013-02-09 07:11:00,
2013-02-09 02:21:00,18.0,15.3,30.11,East,92,0.0,0.0,89,0.00,,,0.00,WeatherLinkWUIModule,2013-02-09 07:21:00,
2013-02-09 02:31:00,18.1,15.4,30.12,East,92,0.0,0.0,89,0.00,,,0.00,WeatherLinkWUIModule,2013-02-09 07:31:00,
2013-02-09 02:41:00,18.1,15.4,30.12,East,92,0.0,0.0,89,0.00,,,0.00,WeatherLinkWUIModule,2013-02-09 07:41:00,
2013-02-09 02:51:00,18.1,15.4,30.13,East,92,0.0,0.0,89,0.00,,,0.00,WeatherLinkWUIModule,2013-02-09 07:51:00,
2013-02-09 03:01:00,18.0,15.3,30.13,East,92,0.0,0.0,89,0.00,,,0.00,WeatherLinkWUIModule,2013-02-09 08:01:00,
2013-02-09 03:11:00,18.0,15.3,30.13,East,92,0.0,0.0,89,0.00,,,0.00,WeatherLinkWUIModule,2013-02-09 08:11:00,
2013-02-09 03:21:00,18.0,15.3,30.14,East,92,0.0,0.0,89,0.00,,,0.00,WeatherLinkWUIModule,2013-02-09 08:21:00,
2013-02-09 03:31:00,18.0,15.3,30.14,East,92,0.0,0.0,89,0.00,,,0.00,WeatherLinkWUIModule,2013-02-09 08:31:00,
2013-02-09 03:41:00,18.0,15.3,30.14,East,92,0.0,0.0,89,0.00,,,0.00,WeatherLinkWUIModule,2013-02-09 08:41:00,
2013-02-09 03:51:00,17.8,15.1,30.15,East,92,0.0,0.0,89,0.00,,,0.00,WeatherLinkWUIModule,2013-02-09 08:51:00,
2013-02-09 04:01:00,17.8,15.1,30.16,East,92,0.0,0.0,89,0.00,,,0.00,WeatherLinkWUIModule,2013-02-09 09:01:00,
2013-02-09 04:11:00,17.8,15.1,30.16,East,92,0.0,0.0,89,0.00,,,0.00,WeatherLinkWUIModule,2013-02-09 09:11:00,
2013-02-09 04:21:00,17.8,15.1,30.17,East,92,0.0,0.0,89,0.00,,,0.00,WeatherLinkWUIModule,2013-02-09 09:21:00,
2013-02-09 04:31:00,17.8,15.1,30.18,East,92,0.0,0.0,89,0.00,,,0.00,WeatherLinkWUIModule,2013-02-09 09:31:00,
2013-02-09 04:41:00,17.7,15.0,30.18,East,92,0.0,0.0,89,0.00,,,0.00,WeatherLinkWUIModule,2013-02-09 09:41:00,
2013-02-09 04:51:00,17.7,15.0,30.19,East,92,0.0,0.0,89,0.00,,,0.00,WeatherLinkWUIModule,2013-02-09 09:51:00,
2013-02-09 05:01:00,17.7,15.0,30.19,East,92,0.0,0.0,89,0.00,,,0.00,WeatherLinkWUIModule,2013-02-09 10:01:00,
2013-02-09 05:11:00,17.7,15.0,30.19,East,92,0.0,0.0,89,0.00,,,0.00,WeatherLinkWUIModule,2013-02-09 10:11:00,
2013-02-09 05:21:00,17.7,15.0,30.21,East,92,0.0,0.0,89,0.00,,,0.00,WeatherLinkWUIModule,2013-02-09 10:21:00,
2013-02-09 05:31:00,17.5,14.8,30.21,East,92,0.0,0.0,89,0.00,,,0.00,WeatherLinkWUIModule,2013-02-09 10:31:00,
2013-02-09 05:41:00,17.5,14.8,30.21,East,92,0.0,0.0,89,0.00,,,0.00,WeatherLinkWUIModule,2013-02-09 10:41:00,
2013-02-09 05:51:00,17.5,14.8,30.22,East,92,0.0,0.0,89,0.00,,,0.00,WeatherLinkWUIModule,2013-02-09 10:51:00,
2013-02-09 06:01:00,17.3,14.6,30.22,East,92,0.0,0.0,89,0.00,,,0.00,WeatherLinkWUIModule,2013-02-09 11:01:00,
2013-02-09 06:11:00,17.3,14.6,30.22,East,92,0.0,0.0,89,0.00,,,0.00,WeatherLinkWUIModule,2013-02-09 11:11:00,
2013-02-09 06:21:00,17.3,14.6,30.24,East,92,0.0,0.0,89,0.00,,,0.00,WeatherLinkWUIModule,2013-02-09 11:21:00,
2013-02-09 06:31:00,17.3,14.6,30.25,East,92,0.0,0.0,89,0.00,,,0.00,WeatherLinkWUIModule,2013-02-09 11:31:00,
2013-02-09 06:41:00,17.3,14.4,30.25,East,92,0.0,0.0,88,0.00,,,0.00,WeatherLinkWUIModule,2013-02-09 11:41:00,
2013-02-09 06:51:00,17.3,14.4,30.25,East,92,0.0,0.0,88,0.00,,,0.00,WeatherLinkWUIModule,2013-02-09 11:51:00,
2013-02-09 07:01:00,17.3,14.6,30.26,East,92,0.0,0.0,89,0.00,,,0.00,WeatherLinkWUIModule,2013-02-09 12:01:00,
2013-02-09 07:11:00,17.3,14.6,30.26,East,92,0.0,0.0,89,0.00,,,0.00,WeatherLinkWUIModule,2013-02-09 12:11:00,
2013-02-09 07:21:00,17.3,14.6,30.26,East,92,0.0,0.0,89,0.00,,,0.00,WeatherLinkWUIModule,2013-02-09 12:21:00,
2013-02-09 07:31:00,17.3,14.6,30.27,East,92,0.0,0.0,89,0.00,,,0.00,WeatherLinkWUIModule,2013-02-09 12:31:00,
2013-02-09 07:41:00,17.3,14.6,30.27,East,92,0.0,0.0,89,0.00,,,0.00,WeatherLinkWUIModule,2013-02-09 12:41:00,
2013-02-09 07:51:00,17.3,14.6,30.28,East,92,0.0,0.0,89,0.00,,,0.00,WeatherLinkWUIModule,2013-02-09 12:51:00,
2013-02-09 08:01:00,17.3,14.6,30.29,East,92,0.0,0.0,89,0.00,,,0.00,WeatherLinkWUIModule,2013-02-09 13:01:00,
2013-02-09 08:11:00,17.5,14.8,30.29,East,92,0.0,0.0,89,0.00,,,0.00,WeatherLinkWUIModule,2013-02-09 13:11:00,
2013-02-09 08:21:00,17.7,15.0,30.30,East,92,0.0,0.0,89,0.00,,,0.00,WeatherLinkWUIModule,2013-02-09 13:21:00,
2013-02-09 08:31:00,17.8,14.8,30.31,East,92,0.0,0.0,88,0.00,,,0.00,WeatherLinkWUIModule,2013-02-09 13:31:00,
2013-02-09 08:41:00,17.8,14.8,30.31,East,92,0.0,0.0,88,0.00,,,0.00,WeatherLinkWUIModule,2013-02-09 13:41:00,
2013-02-09 08:51:00,18.1,15.1,30.31,East,92,0.0,0.0,88,0.00,,,0.00,WeatherLinkWUIModule,2013-02-09 13:51:00,
2013-02-09 09:01:00,18.3,15.3,30.31,East,92,0.0,0.0,88,0.00,,,0.00,WeatherLinkWUIModule,2013-02-09 14:01:00,
2013-02-09 09:11:00,18.4,15.4,30.31,East,92,0.0,0.0,88,0.00,,,0.00,WeatherLinkWUIModule,2013-02-09 14:11:00,
2013-02-09 09:21:00,18.6,15.4,30.31,East,92,0.0,0.0,87,0.00,,,0.00,WeatherLinkWUIModule,2013-02-09 14:21:00,
2013-02-09 09:31:00,18.9,15.7,30.32,East,92,0.0,0.0,87,0.00,,,0.00,WeatherLinkWUIModule,2013-02-09 14:31:00,
2013-02-09 09:41:00,19.1,15.9,30.32,East,92,0.0,0.0,87,0.00,,,0.00,WeatherLinkWUIModule,2013-02-09 14:41:00,
2013-02-09 09:51:00,19.4,16.2,30.32,East,92,0.0,0.0,87,0.00,,,0.00,WeatherLinkWUIModule,2013-02-09 14:51:00,
2013-02-09 10:01:00,19.7,16.2,30.32,East,92,0.0,0.0,86,0.00,,,0.00,WeatherLinkWUIModule,2013-02-09 15:01:00,
2013-02-09 10:11:00,20.0,16.5,30.32,East,92,0.0,0.0,86,0.00,,,0.00,WeatherLinkWUIModule,2013-02-09 15:11:00,
2013-02-09 10:21:00,20.5,17.0,30.32,East,92,0.0,0.0,86,0.00,,,0.00,WeatherLinkWUIModule,2013-02-09 15:21:00,
2013-02-09 10:31:00,20.5,17.0,30.33,East,92,0.0,0.0,86,0.00,,,0.00,WeatherLinkWUIModule,2013-02-09 15:31:00,
2013-02-09 10:41:00,20.3,16.5,30.33,East,92,0.0,0.0,85,0.00,,,0.00,WeatherLinkWUIModule,2013-02-09 15:41:00,
2013-02-09 10:51:00,20.0,16.2,30.34,East,92,0.0,0.0,85,0.00,,,0.00,WeatherLinkWUIModule,2013-02-09 15:51:00,
2013-02-09 11:01:00,19.5,15.5,30.34,East,92,0.0,0.0,84,0.00,,,0.00,WeatherLinkWUIModule,2013-02-09 16:01:00,
2013-02-09 11:11:00,19.9,16.1,30.34,East,92,0.0,0.0,85,0.00,,,0.00,WeatherLinkWUIModule,2013-02-09 16:11:00,
2013-02-09 11:21:00,20.0,16.2,30.34,East,92,0.0,0.0,85,0.00,,,0.00,WeatherLinkWUIModule,2013-02-09 16:21:00,
2013-02-09 11:31:00,20.5,16.7,30.34,East,92,0.0,0.0,85,0.00,,,0.00,WeatherLinkWUIModule,2013-02-09 16:31:00,
2013-02-09 11:41:00,20.8,16.7,30.34,East,92,0.0,0.0,84,0.00,,,0.00,WeatherLinkWUIModule,2013-02-09 16:41:00,
2013-02-09 11:51:00,21.1,17.0,30.34,East,92,0.0,0.0,84,0.00,,,0.00,WeatherLinkWUIModule,2013-02-09 16:51:00,
2013-02-09 12:01:00,21.3,16.9,30.34,East,92,0.0,0.0,83,0.00,,,0.00,WeatherLinkWUIModule,2013-02-09 17:01:00,
2013-02-09 12:11:00,21.1,16.7,30.34,East,92,0.0,0.0,83,0.00,,,0.00,WeatherLinkWUIModule,2013-02-09 17:11:00,
2013-02-09 12:21:00,20.8,16.5,30.34,East,92,0.0,0.0,83,0.00,,,0.00,WeatherLinkWUIModule,2013-02-09 17:21:00,
2013-02-09 12:31:00,21.0,16.6,30.34,East,92,0.0,0.0,83,0.00,,,0.00,WeatherLinkWUIModule,2013-02-09 17:31:00,
2013-02-09 12:41:00,21.3,16.9,30.34,East,92,0.0,0.0,83,0.00,,,0.00,WeatherLinkWUIModule,2013-02-09 17:41:00,
2013-02-09 12:51:00,21.3,16.7,30.34,East,92,0.0,0.0,82,0.00,,,0.00,WeatherLinkWUIModule,2013-02-09 17:51:00,
2013-02-09 13:01:00,21.3,16.7,30.34,East,92,0.0,0.0,82,0.00,,,0.00,WeatherLinkWUIModule,2013-02-09 18:01:00,
2013-02-09 13:11:00,21.3,16.4,30.34,East,92,0.0,0.0,81,0.00,,,0.00,WeatherLinkWUIModule,2013-02-09 18:11:00,
2013-02-09 13:21:00,21.4,16.5,30.34,East,92,0.0,0.0,81,0.00,,,0.00,WeatherLinkWUIModule,2013-02-09 18:21:00,
2013-02-09 13:31:00,21.1,16.2,30.34,East,92,0.0,0.0,81,0.00,,,0.00,WeatherLinkWUIModule,2013-02-09 18:31:00,
2013-02-09 13:41:00,21.0,16.1,30.34,East,92,0.0,0.0,81,0.00,,,0.00,WeatherLinkWUIModule,2013-02-09 18:41:00,
2013-02-09 13:51:00,20.5,15.6,30.34,East,92,0.0,0.0,81,0.00,,,0.00,WeatherLinkWUIModule,2013-02-09 18:51:00,
2013-02-09 14:01:00,20.6,16.0,30.34,East,92,0.0,0.0,82,0.00,,,0.00,WeatherLinkWUIModule,2013-02-09 19:01:00,
2013-02-09 14:11:00,20.8,16.2,30.34,East,92,0.0,0.0,82,0.00,,,0.00,WeatherLinkWUIModule,2013-02-09 19:11:00,
2013-02-09 14:21:00,20.8,16.2,30.34,East,92,0.0,0.0,82,0.00,,,0.00,WeatherLinkWUIModule,2013-02-09 19:21:00,
2013-02-09 14:31:00,21.0,16.4,30.34,East,92,0.0,0.0,82,0.00,,,0.00,WeatherLinkWUIModule,2013-02-09 19:31:00,
2013-02-09 14:41:00,20.6,15.7,30.34,East,92,0.0,0.0,81,0.00,,,0.00,WeatherLinkWUIModule,2013-02-09 19:41:00,
2013-02-09 14:51:00,20.5,15.9,30.35,East,92,0.0,0.0,82,0.00,,,0.00,WeatherLinkWUIModule,2013-02-09 19:51:00,
2013-02-09 15:01:00,20.3,15.7,30.35,East,92,0.0,0.0,82,0.00,,,0.00,WeatherLinkWUIModule,2013-02-09 20:01:00,
2013-02-09 15:11:00,20.5,15.9,30.35,East,92,0.0,0.0,82,0.00,,,0.00,WeatherLinkWUIModule,2013-02-09 20:11:00,
2013-02-09 15:21:00,20.2,15.6,30.35,East,92,0.0,0.0,82,0.00,,,0.00,WeatherLinkWUIModule,2013-02-09 20:21:00,
2013-02-09 15:31:00,20.0,15.4,30.35,East,92,0.0,0.0,82,0.00,,,0.00,WeatherLinkWUIModule,2013-02-09 20:31:00,
2013-02-09 15:41:00,20.0,15.4,30.35,East,92,0.0,0.0,82,0.00,,,0.00,WeatherLinkWUIModule,2013-02-09 20:41:00,
2013-02-09 15:51:00,19.7,15.1,30.35,East,92,0.0,0.0,82,0.00,,,0.00,WeatherLinkWUIModule,2013-02-09 20:51:00,
2013-02-09 16:01:00,19.5,14.9,30.35,East,92,0.0,0.0,82,0.00,,,0.00,WeatherLinkWUIModule,2013-02-09 21:01:00,
2013-02-09 16:11:00,19.5,15.2,30.35,East,92,0.0,0.0,83,0.00,,,0.00,WeatherLinkWUIModule,2013-02-09 21:11:00,
2013-02-09 16:21:00,19.5,15.2,30.36,East,92,0.0,0.0,83,0.00,,,0.00,WeatherLinkWUIModule,2013-02-09 21:21:00,
2013-02-09 16:31:00,19.5,15.2,30.36,East,92,0.0,0.0,83,0.00,,,0.00,WeatherLinkWUIModule,2013-02-09 21:31:00,
2013-02-09 16:41:00,19.4,15.1,30.36,East,92,0.0,0.0,83,0.00,,,0.00,WeatherLinkWUIModule,2013-02-09 21:41:00,
2013-02-09 16:51:00,19.1,14.8,30.36,East,92,0.0,0.0,83,0.00,,,0.00,WeatherLinkWUIModule,2013-02-09 21:51:00,
2013-02-09 17:01:00,18.8,14.5,30.36,East,92,0.0,0.0,83,0.00,,,0.00,WeatherLinkWUIModule,2013-02-09 22:01:00,
2013-02-09 17:11:00,18.6,14.3,30.36,East,92,0.0,0.0,83,0.00,,,0.00,WeatherLinkWUIModule,2013-02-09 22:11:00,
2013-02-09 17:21:00,18.3,14.0,30.36,East,92,0.0,0.0,83,0.00,,,0.00,WeatherLinkWUIModule,2013-02-09 22:21:00,
2013-02-09 17:31:00,18.0,13.7,30.36,East,92,0.0,0.0,83,0.00,,,0.00,WeatherLinkWUIModule,2013-02-09 22:31:00,
2013-02-09 17:41:00,17.5,13.2,30.36,East,92,0.0,0.0,83,0.00,,,0.00,WeatherLinkWUIModule,2013-02-09 22:41:00,
2013-02-09 17:51:00,17.2,12.9,30.36,East,92,0.0,0.0,83,0.00,,,0.00,WeatherLinkWUIModule,2013-02-09 22:51:00,
2013-02-09 18:01:00,16.5,12.2,30.37,East,92,0.0,0.0,83,0.00,,,0.00,WeatherLinkWUIModule,2013-02-09 23:01:00,
2013-02-09 18:11:00,16.2,11.9,30.37,East,92,0.0,0.0,83,0.00,,,0.00,WeatherLinkWUIModule,2013-02-09 23:11:00,
2013-02-09 18:21:00,15.7,11.5,30.37,East,92,0.0,0.0,83,0.00,,,0.00,WeatherLinkWUIModule,2013-02-09 23:21:00,
2013-02-09 18:31:00,15.4,11.2,30.37,East,92,0.0,0.0,83,0.00,,,0.00,WeatherLinkWUIModule,2013-02-09 23:31:00,
2013-02-09 18:41:00,14.9,10.7,30.37,East,92,0.0,0.0,83,0.00,,,0.00,WeatherLinkWUIModule,2013-02-09 23:41:00,
2013-02-09 18:51:00,14.8,10.6,30.37,East,92,0.0,0.0,83,0.00,,,0.00,WeatherLinkWUIModule,2013-02-09 23:51:00,
2013-02-09 19:01:00,14.4,10.2,30.38,East,92,0.0,0.0,83,0.00,,,0.00,WeatherLinkWUIModule,2013-02-10 00:01:00,
2013-02-09 19:11:00,14.1,9.9,30.38,East,92,0.0,0.0,83,0.00,,,0.00,WeatherLinkWUIModule,2013-02-10 00:11:00,
2013-02-09 19:21:00,13.6,9.4,30.38,East,92,0.0,0.0,83,0.00,,,0.00,WeatherLinkWUIModule,2013-02-10 00:21:00,
2013-02-09 19:31:00,12.8,8.3,30.38,East,92,0.0,0.0,82,0.00,,,0.00,WeatherLinkWUIModule,2013-02-10 00:31:00,
2013-02-09 19:41:00,12.1,7.7,30.38,East,92,0.0,0.0,82,0.00,,,0.00,WeatherLinkWUIModule,2013-02-10 00:41:00,
2013-02-09 19:51:00,11.2,6.8,30.38,East,92,0.0,0.0,82,0.00,,,0.00,WeatherLinkWUIModule,2013-02-10 00:51:00,
2013-02-09 20:01:00,10.7,6.3,30.38,East,92,0.0,0.0,82,0.00,,,0.00,WeatherLinkWUIModule,2013-02-10 01:01:00,
2013-02-09 20:11:00,10.2,5.5,30.38,East,92,0.0,0.0,81,0.00,,,0.00,WeatherLinkWUIModule,2013-02-10 01:11:00,
2013-02-09 20:21:00,9.3,4.6,30.38,East,92,0.0,0.0,81,0.00,,,0.00,WeatherLinkWUIModule,2013-02-10 01:21:00,
2013-02-09 20:31:00,8.6,4.0,30.39,East,92,0.0,0.0,81,0.00,,,0.00,WeatherLinkWUIModule,2013-02-10 01:31:00,
2013-02-09 20:41:00,8.1,3.5,30.39,East,92,0.0,0.0,81,0.00,,,0.00,WeatherLinkWUIModule,2013-02-10 01:41:00,
2013-02-09 20:51:00,7.7,3.1,30.39,East,92,0.0,0.0,81,0.00,,,0.00,WeatherLinkWUIModule,2013-02-10 01:51:00,
2013-02-09 21:11:00,7.7,3.4,30.40,N/A,-327680,0.0,0.0,82,0.00,,,0.00,WeatherLinkWUIModule,2013-02-10 02:11:00,
2013-02-09 21:21:00,7.9,3.5,30.39,East,92,0.0,0.0,82,0.00,,,0.00,WeatherLinkWUIModule,2013-02-10 02:21:00,
2013-02-09 21:31:00,8.1,4.0,30.39,East,92,0.0,0.0,83,0.00,,,0.00,WeatherLinkWUIModule,2013-02-10 02:31:00,
2013-02-09 21:41:00,8.1,4.0,30.39,East,92,0.0,0.0,83,0.00,,,0.00,WeatherLinkWUIModule,2013-02-10 02:41:00,
2013-02-09 21:51:00,8.1,4.0,30.39,East,92,0.0,0.0,83,0.00,,,0.00,WeatherLinkWUIModule,2013-02-10 02:51:00,
2013-02-09 22:01:00,7.7,3.6,30.39,East,92,0.0,0.0,83,0.00,,,0.00,WeatherLinkWUIModule,2013-02-10 03:01:00,
2013-02-09 22:11:00,7.4,3.3,30.39,East,92,0.0,0.0,83,0.00,,,0.00,WeatherLinkWUIModule,2013-02-10 03:11:00,
2013-02-09 22:21:00,7.2,3.1,30.39,East,92,0.0,0.0,83,0.00,,,0.00,WeatherLinkWUIModule,2013-02-10 03:21:00,
2013-02-09 22:31:00,7.2,3.1,30.39,East,92,0.0,0.0,83,0.00,,,0.00,WeatherLinkWUIModule,2013-02-10 03:31:00,
2013-02-09 22:41:00,7.0,2.9,30.39,East,92,0.0,0.0,83,0.00,,,0.00,WeatherLinkWUIModule,2013-02-10 03:41:00,
2013-02-09 22:51:00,6.7,2.6,30.39,East,92,0.0,0.0,83,0.00,,,0.00,WeatherLinkWUIModule,2013-02-10 03:51:00,
2013-02-09 23:01:00,6.5,2.2,30.39,East,92,0.0,0.0,82,0.00,,,0.00,WeatherLinkWUIModule,2013-02-10 04:01:00,
2013-02-09 23:11:00,6.1,1.8,30.39,East,92,0.0,0.0,82,0.00,,,0.00,WeatherLinkWUIModule,2013-02-10 04:11:00,
2013-02-09 23:21:00,6.0,1.7,30.39,East,92,0.0,0.0,82,0.00,,,0.00,WeatherLinkWUIModule,2013-02-10 04:21:00,
2013-02-09 23:31:00,5.4,1.1,30.39,East,92,0.0,0.0,82,0.00,,,0.00,WeatherLinkWUIModule,2013-02-10 04:31:00,
2013-02-09 23:41:00,5.0,0.7,30.39,East,92,0.0,0.0,82,0.00,,,0.00,WeatherLinkWUIModule,2013-02-10 04:41:00,
2013-02-09 23:51:00,4.7,0.2,30.39,East,92,0.0,0.0,81,0.00,,,0.00,WeatherLinkWUIModule,2013-02-10 04:51:00,